Time;durP1;ratioP1;P1;durP2;ratioP2;P2;SDS_P1;SDS_P2;PMS_P1;PMS_P2;Temp;Humidity;BMP_temperature;BMP_pressure;BME280_temperature;BME280_humidity;BME280_pressure;Samples;Min_cycle;Max_cycle;Signal;HPM_P1;HPM_P2
2022/06/27 00:02:09;;;;;;;8.52;3.00;;;13.20;99.90;;;;;;5034708;28;20029;-69
2022/06/27 00:04:35;;;;;;;11.18;3.03;;;13.20;99.90;;;;;;5037680;28;20065;-68
2022/06/27 00:07:01;;;;;;;10.05;3.33;;;13.20;99.90;;;;;;5036064;28;20116;-69
2022/06/27 00:09:26;;;;;;;9.57;2.95;;;13.20;99.90;;;;;;5034804;28;20121;-72
2022/06/27 00:11:52;;;;;;;10.55;3.17;;;13.20;99.90;;;;;;5031091;28;20033;-72
2022/06/27 00:14:18;;;;;;;9.13;2.50;;;13.20;99.90;;;;;;5032765;28;20145;-72
2022/06/27 00:16:43;;;;;;;11.70;3.00;;;13.20;99.90;;;;;;5036343;28;20056;-70
2022/06/27 00:19:09;;;;;;;9.38;2.53;;;13.20;99.90;;;;;;5036374;28;20064;-70
2022/06/27 00:21:35;;;;;;;8.20;2.60;;;13.20;99.90;;;;;;5039090;28;20064;-69
2022/06/27 00:24:00;;;;;;;9.13;2.88;;;13.20;99.90;;;;;;5035929;28;20133;-73
2022/06/27 00:26:26;;;;;;;9.40;2.88;;;13.10;99.90;;;;;;5036876;28;20619;-71
2022/06/27 00:28:52;;;;;;;7.88;2.83;;;13.10;99.90;;;;;;5040786;28;20082;-70
2022/06/27 00:31:18;;;;;;;6.90;2.55;;;13.10;99.90;;;;;;5036033;28;20041;-70
2022/06/27 00:33:43;;;;;;;7.68;2.97;;;13.10;99.90;;;;;;5033598;28;20079;-69
2022/06/27 00:36:09;;;;;;;7.47;3.05;;;13.00;99.90;;;;;;5036189;28;20044;-69
2022/06/27 00:38:35;;;;;;;7.80;2.72;;;12.90;99.90;;;;;;5022575;28;20037;-70
2022/06/27 00:41:00;;;;;;;6.65;2.60;;;12.90;99.90;;;;;;5023354;28;20033;-70
2022/06/27 00:43:26;;;;;;;8.18;2.60;;;12.80;99.90;;;;;;5037370;28;20037;-71
2022/06/27 00:45:52;;;;;;;6.93;2.47;;;12.80;99.90;;;;;;5036058;28;20033;-71
2022/06/27 00:48:17;;;;;;;7.82;2.42;;;12.80;99.90;;;;;;5028484;28;20037;-71
2022/06/27 00:50:44;;;;;;;8.38;2.00;;;12.80;99.90;;;;;;5025535;28;20036;-70
2022/06/27 00:53:11;;;;;;;6.45;2.05;;;12.80;99.90;;;;;;5040015;28;20531;-69
2022/06/27 00:55:37;;;;;;;7.03;1.90;;;12.80;99.90;;;;;;5034195;28;20029;-73
2022/06/27 00:58:03;;;;;;;7.43;2.50;;;12.80;99.90;;;;;;5037913;28;20048;-70
2022/06/27 01:00:29;;;;;;;7.38;2.08;;;12.80;99.90;;;;;;5041797;28;20025;-70
2022/06/27 01:02:54;;;;;;;7.03;2.17;;;12.80;99.90;;;;;;5034487;28;20029;-70
2022/06/27 01:05:20;;;;;;;6.32;2.00;;;12.80;99.90;;;;;;5037526;28;20429;-69
2022/06/27 01:07:47;;;;;;;8.30;2.10;;;12.80;99.90;;;;;;5033842;28;20048;-72
2022/06/27 01:10:13;;;;;;;6.80;2.20;;;12.70;99.90;;;;;;5018060;28;20041;-68
2022/06/27 01:12:42;;;;;;;9.27;2.30;;;12.70;99.90;;;;;;5030959;28;20040;-71
2022/06/27 01:15:11;;;;;;;7.03;2.03;;;12.70;99.90;;;;;;5028918;28;20030;-70
2022/06/27 01:17:38;;;;;;;4.93;2.13;;;12.70;99.90;;;;;;5032230;28;20061;-69
2022/06/27 01:20:05;;;;;;;5.88;2.13;;;12.60;99.90;;;;;;5031481;28;20791;-71
2022/06/27 01:22:31;;;;;;;7.85;2.20;;;12.50;99.90;;;;;;5023980;28;20037;-69
2022/06/27 01:24:56;;;;;;;7.93;2.42;;;12.50;99.90;;;;;;5038852;28;20131;-70
2022/06/27 01:27:22;;;;;;;7.05;2.05;;;12.50;99.90;;;;;;5035689;28;20059;-69
2022/06/27 01:29:48;;;;;;;9.18;2.03;;;12.50;99.90;;;;;;5034908;28;20167;-71
2022/06/27 01:32:14;;;;;;;5.55;2.42;;;12.40;99.90;;;;;;5038507;28;20029;-70
2022/06/27 01:34:39;;;;;;;6.88;2.00;;;12.40;99.90;;;;;;5038393;28;20488;-70
2022/06/27 01:37:05;;;;;;;8.32;2.10;;;12.40;99.90;;;;;;5042448;28;20380;-70
2022/06/27 01:39:31;;;;;;;9.07;2.13;;;12.20;99.90;;;;;;5046551;28;20033;-70
2022/06/27 01:42:02;;;;;;;7.63;2.17;;;12.10;99.90;;;;;;5044397;28;20037;-72
2022/06/27 01:44:31;;;;;;;5.95;2.42;;;12.00;99.90;;;;;;5028675;28;20120;-71
2022/06/27 01:47:00;;;;;;;6.53;2.30;;;11.90;99.90;;;;;;5026913;28;20540;-71
2022/06/27 01:49:27;;;;;;;8.15;2.45;;;11.90;99.90;;;;;;5041021;28;20095;-71
2022/06/27 01:51:54;;;;;;;8.60;2.80;;;11.90;99.90;;;;;;5041075;28;20471;-71
2022/06/27 01:54:22;;;;;;;10.93;3.60;;;11.80;99.90;;;;;;5040288;28;20068;-72
2022/06/27 01:56:49;;;;;;;10.35;3.42;;;11.80;99.90;;;;;;5039307;28;20033;-71
2022/06/27 01:59:17;;;;;;;11.02;3.85;;;11.80;99.90;;;;;;5032521;28;20029;-71
2022/06/27 02:01:44;;;;;;;11.43;4.68;;;11.80;99.90;;;;;;5035592;28;20029;-70
2022/06/27 02:04:12;;;;;;;8.73;3.70;;;11.80;99.90;;;;;;5047376;28;20112;-71
2022/06/27 02:06:39;;;;;;;11.20;4.00;;;11.70;99.90;;;;;;5038410;28;20037;-72
2022/06/27 02:09:07;;;;;;;9.43;3.60;;;11.70;99.90;;;;;;5042513;28;20581;-73
2022/06/27 02:11:33;;;;;;;10.85;4.10;;;11.60;99.90;;;;;;5037312;28;20091;-72
2022/06/27 02:13:59;;;;;;;11.02;4.07;;;11.60;99.90;;;;;;5035689;28;20040;-71
2022/06/27 02:16:25;;;;;;;11.20;4.40;;;11.60;99.90;;;;;;5036102;28;20036;-70
2022/06/27 02:18:52;;;;;;;13.80;6.63;;;11.50;99.90;;;;;;5032223;28;20029;-70
2022/06/27 02:21:24;;;;;;;14.40;7.90;;;11.50;99.90;;;;;;5035481;28;20034;-71
2022/06/27 02:23:51;;;;;;;15.73;8.45;;;11.50;99.90;;;;;;5026169;28;20355;-69
2022/06/27 02:26:21;;;;;;;13.57;7.38;;;11.50;99.90;;;;;;5032131;28;20063;-70
2022/06/27 02:28:48;;;;;;;18.42;9.00;;;11.50;99.90;;;;;;5047749;28;20036;-69
2022/06/27 02:31:13;;;;;;;18.27;9.20;;;11.60;99.90;;;;;;5033940;28;20037;-69
2022/06/27 02:33:42;;;;;;;14.85;8.82;;;11.60;99.90;;;;;;5027411;28;20126;-69
2022/06/27 02:36:13;;;;;;;15.50;9.25;;;11.60;99.90;;;;;;5041123;28;20039;-70
2022/06/27 02:38:41;;;;;;;15.75;9.35;;;11.60;99.90;;;;;;5033155;28;20036;-69
2022/06/27 02:41:10;;;;;;;16.10;8.60;;;11.60;99.90;;;;;;5049311;28;20498;-69
2022/06/27 02:43:38;;;;;;;17.35;9.18;;;11.60;99.90;;;;;;5034620;28;20119;-70
2022/06/27 02:46:05;;;;;;;15.48;8.50;;;11.60;99.90;;;;;;5043719;28;20032;-69
2022/06/27 02:48:32;;;;;;;15.82;9.45;;;11.60;99.90;;;;;;5040822;28;20116;-70
2022/06/27 02:51:07;;;;;;;14.77;9.18;;;11.60;99.90;;;;;;5034454;28;20033;-70
2022/06/27 02:53:35;;;;;;;17.60;9.60;;;11.60;99.90;;;;;;5029342;28;20030;-71
2022/06/27 02:56:07;;;;;;;15.50;9.20;;;11.60;99.90;;;;;;5035483;28;20120;-71
2022/06/27 02:59:18;;;;;;;14.82;8.63;;;11.50;99.90;;;;;;5014761;28;20041;-70
2022/06/27 03:01:46;;;;;;;15.13;6.65;;;11.50;99.90;;;;;;5011863;28;20038;-71
2022/06/27 03:04:12;;;;;;;11.88;4.72;;;11.40;99.90;;;;;;5030933;28;20589;-71
2022/06/27 03:06:38;;;;;;;7.68;3.75;;;11.40;99.90;;;;;;5033130;28;20068;-70
2022/06/27 03:09:04;;;;;;;7.85;3.30;;;11.30;99.90;;;;;;5034748;28;20026;-71
2022/06/27 03:11:29;;;;;;;7.00;3.38;;;11.30;99.90;;;;;;5041668;28;20368;-71
2022/06/27 03:13:55;;;;;;;10.40;3.78;;;11.20;99.90;;;;;;5035726;28;20048;-70
2022/06/27 03:16:23;;;;;;;8.15;3.65;;;11.20;99.90;;;;;;5031098;28;20037;-71
2022/06/27 03:18:50;;;;;;;7.07;3.10;;;11.10;99.90;;;;;;5033869;28;20048;-70
2022/06/27 03:21:17;;;;;;;8.98;3.28;;;11.10;99.90;;;;;;5030724;28;20239;-70
2022/06/27 03:23:48;;;;;;;9.90;3.72;;;11.10;99.90;;;;;;5030616;28;20472;-72
2022/06/27 03:26:15;;;;;;;7.38;2.95;;;11.00;99.90;;;;;;5020139;28;20160;-71
2022/06/27 03:28:41;;;;;;;7.15;2.90;;;11.00;99.90;;;;;;5039209;28;20090;-71
2022/06/27 03:31:07;;;;;;;8.80;3.22;;;11.00;99.90;;;;;;5023873;28;20038;-72
2022/06/27 03:33:33;;;;;;;6.85;2.90;;;10.90;99.90;;;;;;5030244;28;20059;-71
2022/06/27 03:35:59;;;;;;;5.20;2.80;;;11.00;99.90;;;;;;5038317;28;20123;-71
2022/06/27 03:38:24;;;;;;;8.38;3.00;;;10.90;99.90;;;;;;5027061;28;20087;-70
2022/06/27 03:40:50;;;;;;;7.13;2.47;;;10.80;99.90;;;;;;5031110;28;20033;-69
2022/06/27 03:43:16;;;;;;;6.88;3.05;;;10.80;99.90;;;;;;5028193;28;20026;-72
2022/06/27 03:45:41;;;;;;;7.63;2.72;;;10.70;99.90;;;;;;5037055;28;20076;-70
2022/06/27 03:48:07;;;;;;;6.63;3.00;;;10.70;99.90;;;;;;5027171;28;20133;-70
2022/06/27 03:50:35;;;;;;;6.95;2.83;;;10.70;99.90;;;;;;5025982;28;20033;-70
2022/06/27 03:53:02;;;;;;;7.30;2.83;;;10.60;99.90;;;;;;5027606;28;20041;-71
2022/06/27 03:55:27;;;;;;;7.82;2.42;;;10.60;99.90;;;;;;5053689;28;20036;-70
2022/06/27 03:57:56;;;;;;;7.35;2.40;;;10.60;99.90;;;;;;5030046;28;20045;-70
2022/06/27 04:00:32;;;;;;;6.90;2.50;;;10.60;99.90;;;;;;5038155;28;20034;-71
2022/06/27 04:02:58;;;;;;;7.15;3.10;;;10.50;99.90;;;;;;5036273;28;20052;-70
2022/06/27 04:05:24;;;;;;;7.60;2.88;;;10.50;99.90;;;;;;5038136;28;20499;-69
2022/06/27 04:07:50;;;;;;;11.15;2.60;;;10.50;99.90;;;;;;5040491;28;20079;-69
2022/06/27 04:10:16;;;;;;;5.30;2.67;;;10.40;99.90;;;;;;5038254;28;20477;-69
2022/06/27 04:12:42;;;;;;;8.05;3.38;;;10.40;99.90;;;;;;5035224;28;20486;-70
2022/06/27 04:15:08;;;;;;;6.20;2.78;;;10.40;99.90;;;;;;5037688;28;20621;-70
2022/06/27 04:17:34;;;;;;;7.55;2.83;;;10.40;99.90;;;;;;5038468;28;20038;-71
2022/06/27 04:20:00;;;;;;;6.88;2.72;;;10.40;99.90;;;;;;5028044;28;20535;-69
2022/06/27 04:22:28;;;;;;;5.00;2.42;;;10.40;99.90;;;;;;5035966;28;20026;-69
2022/06/27 04:24:54;;;;;;;6.60;2.85;;;10.40;99.90;;;;;;5035681;28;20136;-70
2022/06/27 04:27:20;;;;;;;7.38;2.63;;;10.60;99.90;;;;;;5031327;28;20492;-69
2022/06/27 04:29:48;;;;;;;5.40;2.80;;;10.60;99.90;;;;;;5034820;28;20025;-71
2022/06/27 04:32:15;;;;;;;5.95;2.70;;;10.60;99.90;;;;;;5036637;28;20124;-71
2022/06/27 04:34:41;;;;;;;7.60;2.70;;;10.60;99.90;;;;;;5035797;28;20029;-71
2022/06/27 04:37:07;;;;;;;5.30;2.40;;;10.60;99.90;;;;;;5036223;28;20387;-69
2022/06/27 04:39:33;;;;;;;8.85;2.83;;;10.60;99.90;;;;;;5032466;28;20036;-70
2022/06/27 04:41:59;;;;;;;8.63;2.65;;;10.60;99.90;;;;;;5037055;28;20091;-68
2022/06/27 04:44:25;;;;;;;5.78;2.55;;;10.60;99.90;;;;;;5038029;28;20029;-70
2022/06/27 04:46:52;;;;;;;8.52;2.90;;;10.70;99.90;;;;;;5027588;28;20037;-69
2022/06/27 04:49:19;;;;;;;4.43;2.20;;;10.70;99.90;;;;;;5043916;28;20037;-69
2022/06/27 04:51:49;;;;;;;6.30;2.58;;;10.80;99.90;;;;;;5034310;28;20033;-69
2022/06/27 04:54:16;;;;;;;7.15;2.70;;;10.80;99.90;;;;;;5035099;28;20540;-71
2022/06/27 04:56:43;;;;;;;8.30;2.90;;;10.80;99.90;;;;;;5026250;28;20033;-72
2022/06/27 04:59:10;;;;;;;7.30;2.83;;;10.90;99.90;;;;;;5018024;28;20034;-71
2022/06/27 05:01:36;;;;;;;9.48;2.97;;;10.90;99.90;;;;;;5041632;28;20029;-70
2022/06/27 05:04:02;;;;;;;6.20;2.70;;;10.90;99.90;;;;;;5013018;28;20025;-70
2022/06/27 05:06:28;;;;;;;6.78;2.40;;;10.90;99.90;;;;;;5008789;28;20500;-74
2022/06/27 05:08:54;;;;;;;8.43;3.00;;;11.00;99.90;;;;;;5010997;28;20143;-72
2022/06/27 05:11:19;;;;;;;9.82;3.03;;;11.00;99.90;;;;;;5018049;28;20036;-71
2022/06/27 05:13:45;;;;;;;6.32;2.97;;;11.10;99.90;;;;;;5027992;28;20036;-71
2022/06/27 05:16:11;;;;;;;6.88;3.20;;;11.10;99.90;;;;;;5027812;28;20036;-72
2022/06/27 05:18:36;;;;;;;8.88;3.03;;;11.20;99.90;;;;;;5026310;28;20083;-71
2022/06/27 05:21:02;;;;;;;7.30;2.78;;;11.20;99.90;;;;;;5023662;28;20120;-70
2022/06/27 05:23:28;;;;;;;8.23;3.10;;;11.30;99.90;;;;;;5011404;28;20054;-73
2022/06/27 05:25:54;;;;;;;9.30;3.25;;;11.40;99.90;;;;;;5021772;28;20041;-73
2022/06/27 05:28:19;;;;;;;9.18;2.83;;;11.50;99.90;;;;;;5033765;28;20396;-70
2022/06/27 05:30:47;;;;;;;6.32;2.83;;;11.60;99.90;;;;;;5042832;28;20045;-70
2022/06/27 05:33:12;;;;;;;6.45;2.50;;;11.60;99.90;;;;;;5024339;28;20623;-71
2022/06/27 05:35:39;;;;;;;10.55;2.80;;;11.70;99.90;;;;;;5024557;28;20113;-70
2022/06/27 05:38:04;;;;;;;9.90;2.42;;;11.70;99.90;;;;;;5031801;28;20069;-70
2022/06/27 05:40:30;;;;;;;8.50;2.70;;;11.80;99.90;;;;;;5031850;28;20079;-71
2022/06/27 05:42:57;;;;;;;5.65;2.50;;;11.80;99.90;;;;;;5031626;28;20041;-71
2022/06/27 05:45:23;;;;;;;9.48;3.17;;;11.90;99.90;;;;;;5030309;28;20113;-70
2022/06/27 05:47:57;;;;;;;7.63;2.88;;;12.00;99.90;;;;;;5031539;28;20041;-71
2022/06/27 05:50:23;;;;;;;9.68;2.85;;;12.00;99.90;;;;;;5047687;28;20039;-71
2022/06/27 05:52:49;;;;;;;7.68;2.92;;;12.10;99.90;;;;;;5051602;28;20040;-72
2022/06/27 05:55:15;;;;;;;9.35;2.90;;;12.20;99.90;;;;;;5051644;28;20052;-70
2022/06/27 05:57:41;;;;;;;6.57;2.65;;;12.20;99.90;;;;;;5051387;28;20060;-71
2022/06/27 06:00:08;;;;;;;7.63;2.67;;;12.30;99.90;;;;;;5038515;28;20065;-70
2022/06/27 06:02:34;;;;;;;7.78;2.90;;;12.40;99.90;;;;;;5032270;28;20148;-71
2022/06/27 06:05:00;;;;;;;10.32;3.05;;;12.40;99.90;;;;;;5034905;28;20030;-70
2022/06/27 06:07:26;;;;;;;8.55;2.58;;;12.50;99.90;;;;;;5030048;28;20029;-70
2022/06/27 06:09:52;;;;;;;8.40;2.72;;;12.50;99.90;;;;;;5033845;28;20108;-72
2022/06/27 06:12:18;;;;;;;7.32;3.03;;;12.60;99.90;;;;;;5034764;28;20033;-71
2022/06/27 06:14:46;;;;;;;7.25;2.10;;;12.60;99.90;;;;;;5031064;28;20684;-71
2022/06/27 06:17:12;;;;;;;7.55;2.85;;;12.60;99.90;;;;;;5049109;28;20042;-72
2022/06/27 06:19:38;;;;;;;10.27;3.10;;;12.70;99.90;;;;;;5036955;28;20043;-69
2022/06/27 06:22:05;;;;;;;8.50;3.20;;;12.70;99.90;;;;;;5030733;28;20484;-71
2022/06/27 06:24:31;;;;;;;7.95;3.15;;;12.80;99.90;;;;;;5025670;28;20091;-70
2022/06/27 06:27:00;;;;;;;11.05;2.78;;;12.90;99.90;;;;;;5034757;28;20038;-70
2022/06/27 06:29:26;;;;;;;8.90;2.42;;;13.10;99.90;;;;;;5034661;28;20021;-71
2022/06/27 06:31:51;;;;;;;6.55;1.42;;;13.40;99.90;;;;;;5031299;28;20033;-70
2022/06/27 06:34:17;;;;;;;8.43;1.70;;;13.70;99.90;;;;;;5040847;28;20053;-71
2022/06/27 06:36:44;;;;;;;8.95;1.95;;;14.00;99.90;;;;;;5036657;28;20120;-71
2022/06/27 06:39:12;;;;;;;8.20;1.45;;;14.30;99.90;;;;;;5021087;28;20499;-74
2022/06/27 06:41:39;;;;;;;9.45;1.45;;;14.50;99.90;;;;;;5009924;28;20033;-72
2022/06/27 06:44:06;;;;;;;8.05;1.45;;;14.80;99.90;;;;;;5024037;28;20029;-71
2022/06/27 06:46:34;;;;;;;9.55;1.70;;;15.00;99.90;;;;;;5034141;28;20124;-73
2022/06/27 06:49:02;;;;;;;8.95;1.77;;;15.20;99.90;;;;;;5035928;28;20029;-70
2022/06/27 06:51:36;;;;;;;11.13;1.92;;;15.30;99.90;;;;;;5040868;28;20040;-71
2022/06/27 06:54:04;;;;;;;10.60;1.45;;;15.40;99.90;;;;;;5027954;28;20029;-72
2022/06/27 06:56:30;;;;;;;6.75;1.38;;;15.40;99.90;;;;;;5011286;28;20037;-72
2022/06/27 06:59:00;;;;;;;10.65;1.60;;;15.50;99.90;;;;;;5017177;28;20033;-73
2022/06/27 07:01:27;;;;;;;7.18;1.90;;;15.50;99.90;;;;;;5030357;28;20033;-70
2022/06/27 07:03:54;;;;;;;8.52;1.50;;;15.60;99.90;;;;;;5026016;28;20033;-76
2022/06/27 07:06:24;;;;;;;9.02;1.52;;;15.70;99.90;;;;;;5016945;28;20095;-72
2022/06/27 07:08:53;;;;;;;9.27;1.85;;;15.80;99.90;;;;;;5024058;28;20033;-73
2022/06/27 07:11:21;;;;;;;9.50;1.73;;;15.90;99.90;;;;;;5027830;28;20186;-72
2022/06/27 07:13:48;;;;;;;9.35;2.22;;;16.00;99.90;;;;;;5021560;28;20037;-75
2022/06/27 07:16:14;;;;;;;11.82;1.67;;;16.20;99.90;;;;;;5051543;28;20457;-74
2022/06/27 07:18:41;;;;;;;9.95;1.83;;;16.40;99.90;;;;;;5020234;28;20034;-72
2022/06/27 07:21:07;;;;;;;9.10;1.63;;;16.60;99.90;;;;;;5021050;28;20033;-73
2022/06/27 07:23:33;;;;;;;9.25;1.58;;;16.80;99.90;;;;;;5014889;28;20107;-72
2022/06/27 07:25:59;;;;;;;9.23;1.83;;;16.80;99.90;;;;;;5010034;28;20037;-72
2022/06/27 07:28:28;;;;;;;9.30;1.73;;;16.90;99.90;;;;;;5023323;28;20073;-71
2022/06/27 07:30:55;;;;;;;11.05;1.45;;;16.90;99.90;;;;;;5029138;28;20057;-71
2022/06/27 07:33:21;;;;;;;6.20;1.30;;;16.90;99.90;;;;;;5029607;28;20068;-75
2022/06/27 07:35:48;;;;;;;8.80;1.38;;;16.90;99.90;;;;;;5025383;28;20033;-71
2022/06/27 07:38:13;;;;;;;7.00;1.60;;;16.90;99.90;;;;;;5020278;28;20133;-74
2022/06/27 07:40:39;;;;;;;8.68;2.28;;;17.00;99.90;;;;;;5022024;28;20117;-70
2022/06/27 07:43:05;;;;;;;9.93;1.98;;;16.90;99.90;;;;;;5028888;28;20037;-70
2022/06/27 07:45:31;;;;;;;10.88;1.98;;;17.10;99.90;;;;;;5026638;28;20048;-73
2022/06/27 07:47:57;;;;;;;9.48;1.30;;;17.20;99.90;;;;;;5028016;28;20091;-71
2022/06/27 07:50:42;;;;;;;8.65;1.30;;;17.20;99.90;;;;;;5029436;28;20033;-72
2022/06/27 07:53:14;;;;;;;7.10;1.30;;;17.30;99.90;;;;;;5028112;28;20488;-70
2022/06/27 07:55:48;;;;;;;10.30;1.50;;;17.30;99.70;;;;;;5027450;28;20041;-70
2022/06/27 07:58:16;;;;;;;10.98;1.73;;;17.30;99.60;;;;;;5019991;28;20596;-75
2022/06/27 08:00:44;;;;;;;6.03;1.30;;;17.30;99.50;;;;;;5027338;28;20120;-76
2022/06/27 08:05:54;;;;;;;9.35;1.83;;;17.40;99.90;;;;;;5009387;28;20053;-71
2022/06/27 08:08:23;;;;;;;10.55;1.67;;;17.40;99.20;;;;;;5015593;28;20484;-73
2022/06/27 08:10:54;;;;;;;10.73;1.40;;;17.40;99.70;;;;;;5025231;28;20396;-74
2022/06/27 08:13:20;;;;;;;7.90;1.48;;;17.60;99.90;;;;;;5017150;28;20026;-74
2022/06/27 08:15:48;;;;;;;11.02;1.70;;;17.80;99.80;;;;;;5040419;28;20481;-75
2022/06/27 08:18:17;;;;;;;8.52;1.50;;;17.90;98.30;;;;;;5009863;28;20033;-71
2022/06/27 08:20:45;;;;;;;;;;;17.90;97.50;;;;;;5051964;28;20033;-72
2022/06/27 08:23:12;;;;;;;8.63;1.40;;;17.80;98.40;;;;;;5015369;28;19921;-72
2022/06/27 08:25:38;;;;;;;7.60;1.17;;;17.80;98.90;;;;;;5023757;28;20129;-72
2022/06/27 08:28:05;;;;;;;7.80;1.15;;;17.80;98.10;;;;;;5025803;28;20171;-71
2022/06/27 08:30:31;;;;;;;8.05;1.50;;;17.80;97.70;;;;;;5028336;28;20388;-71
2022/06/27 08:32:58;;;;;;;9.63;1.60;;;17.80;98.70;;;;;;5014040;28;20026;-71
2022/06/27 08:35:24;;;;;;;7.03;1.45;;;17.80;98.30;;;;;;5028291;28;20037;-73
2022/06/27 08:37:54;;;;;;;10.13;1.95;;;18.00;97.60;;;;;;5026894;28;20081;-71
2022/06/27 08:40:21;;;;;;;10.93;1.90;;;18.00;98.40;;;;;;5026173;28;20029;-73
2022/06/27 08:42:50;;;;;;;9.52;1.50;;;18.10;98.30;;;;;;5018871;28;20029;-70
2022/06/27 08:45:17;;;;;;;8.25;1.40;;;18.20;98.30;;;;;;5023202;28;20112;-73
2022/06/27 08:47:43;;;;;;;8.02;1.20;;;18.10;98.70;;;;;;5014296;28;20049;-74
2022/06/27 08:50:11;;;;;;;8.65;1.40;;;18.10;98.20;;;;;;5014762;28;20026;-73
2022/06/27 08:52:39;;;;;;;6.75;1.50;;;18.00;99.50;;;;;;5012733;28;20061;-75
2022/06/27 08:55:14;;;;;;;6.88;1.30;;;18.00;98.70;;;;;;5015601;28;20037;-73
2022/06/27 08:57:43;;;;;;;9.90;1.75;;;18.00;98.90;;;;;;5034878;28;20037;-73
2022/06/27 09:00:12;;;;;;;7.35;1.40;;;17.90;98.50;;;;;;5017366;28;20112;-73
2022/06/27 09:02:44;;;;;;;10.20;1.40;;;17.90;98.40;;;;;;5008881;28;20026;-75
2022/06/27 09:05:19;;;;;;;7.65;1.83;;;17.90;98.30;;;;;;5014105;28;20484;-78
2022/06/27 09:07:53;;;;;;;7.22;1.67;;;17.80;98.20;;;;;;5017184;28;20037;-72
2022/06/27 09:10:24;;;;;;;7.45;1.42;;;17.70;99.10;;;;;;5027177;28;20107;-74
2022/06/27 09:13:02;;;;;;;7.57;1.63;;;17.80;98.70;;;;;;5019939;28;20032;-74
2022/06/27 09:15:46;;;;;;;7.97;1.55;;;17.80;99.40;;;;;;5020973;28;20033;-72
2022/06/27 09:18:15;;;;;;;8.18;1.50;;;17.80;97.20;;;;;;5012079;28;20034;-80
2022/06/27 09:20:47;;;;;;;6.72;1.27;;;17.80;96.50;;;;;;5022878;28;20044;-73
2022/06/27 09:23:29;;;;;;;8.85;1.27;;;17.80;98.10;;;;;;5021090;28;20044;-73
2022/06/27 09:25:59;;;;;;;10.55;1.98;;;18.00;96.20;;;;;;5009345;28;20396;-74
2022/06/27 09:28:39;;;;;;;9.80;1.42;;;18.00;97.30;;;;;;5040973;28;20049;-74
2022/06/27 09:31:10;;;;;;;9.30;1.70;;;18.30;97.90;;;;;;5017624;28;20124;-73
2022/06/27 09:33:38;;;;;;;7.97;1.50;;;18.30;96.20;;;;;;5016124;28;20065;-72
2022/06/27 09:36:14;;;;;;;8.82;1.27;;;18.30;96.20;;;;;;5011202;28;20121;-74
2022/06/27 09:38:44;;;;;;;11.90;1.80;;;18.20;95.70;;;;;;5008244;28;20524;-75
2022/06/27 09:41:13;;;;;;;8.02;1.88;;;18.10;97.00;;;;;;5025833;28;20045;-71
2022/06/27 09:43:42;;;;;;;10.10;1.60;;;18.00;97.60;;;;;;5010244;28;20034;-73
2022/06/27 09:46:10;;;;;;;7.00;1.30;;;17.80;97.80;;;;;;5022793;28;20045;-80
2022/06/27 09:48:38;;;;;;;7.93;1.23;;;17.80;97.00;;;;;;5047617;28;20080;-73
2022/06/27 09:51:04;;;;;;;8.02;1.42;;;18.00;99.20;;;;;;5025980;28;20047;-73
2022/06/27 09:53:30;;;;;;;9.75;1.80;;;18.20;95.90;;;;;;5025324;28;20119;-74
2022/06/27 09:55:58;;;;;;;9.88;1.60;;;18.30;96.10;;;;;;5013937;28;20058;-73
2022/06/27 09:58:25;;;;;;;9.35;1.50;;;18.50;97.20;;;;;;5024777;28;20456;-72
2022/06/27 10:00:51;;;;;;;10.70;1.63;;;18.70;95.70;;;;;;5022278;28;20092;-73
2022/06/27 10:03:16;;;;;;;11.05;1.52;;;18.90;96.00;;;;;;5019840;28;20033;-72
2022/06/27 10:05:44;;;;;;;10.52;1.63;;;19.10;94.70;;;;;;5026444;28;20067;-73
2022/06/27 10:08:10;;;;;;;6.93;1.83;;;19.00;94.70;;;;;;5017648;28;20034;-75
2022/06/27 10:11:15;;;;;;;9.43;1.48;;;19.00;95.40;;;;;;5011393;28;20041;-78
2022/06/27 10:13:43;;;;;;;8.57;1.52;;;19.10;93.20;;;;;;5025494;28;20117;-73
2022/06/27 10:16:17;;;;;;;9.63;1.77;;;18.80;92.70;;;;;;5024283;28;20067;-72
2022/06/27 10:19:03;;;;;;;12.13;2.00;;;18.60;94.50;;;;;;5026229;28;20132;-74
2022/06/27 10:21:48;;;;;;;8.35;1.48;;;18.50;96.30;;;;;;5027802;28;20033;-76
2022/06/27 10:24:19;;;;;;;7.68;1.52;;;18.60;95.70;;;;;;5026067;28;20077;-74
2022/06/27 10:26:46;;;;;;;7.25;1.35;;;18.80;95.50;;;;;;5026195;28;20073;-74
2022/06/27 10:29:30;;;;;;;6.60;1.20;;;19.10;95.30;;;;;;5042605;28;20072;-73
2022/06/27 10:31:57;;;;;;;8.45;1.65;;;19.40;94.40;;;;;;5023424;28;20091;-75
2022/06/27 10:34:38;;;;;;;9.98;1.67;;;19.60;95.30;;;;;;5027492;28;20029;-74
2022/06/27 10:37:22;;;;;;;7.50;1.65;;;19.80;93.90;;;;;;5008266;28;20070;-73
2022/06/27 10:39:48;;;;;;;8.77;1.50;;;19.70;93.30;;;;;;5025730;28;20053;-72
2022/06/27 10:42:48;;;;;;;7.45;1.30;;;19.50;93.30;;;;;;5018642;28;20033;-74
2022/06/27 10:45:19;;;;;;;8.48;1.30;;;19.20;93.90;;;;;;5029409;28;20042;-75
2022/06/27 10:47:46;;;;;;;9.32;1.70;;;18.90;94.20;;;;;;5021149;28;20042;-71
2022/06/27 10:50:14;;;;;;;6.80;1.38;;;19.00;95.80;;;;;;5011264;28;20033;-75
2022/06/27 10:52:40;;;;;;;7.38;1.45;;;19.20;95.60;;;;;;5014667;28;20099;-75
2022/06/27 10:55:23;;;;;;;8.07;1.42;;;19.30;94.30;;;;;;5012388;28;20569;-72
2022/06/27 10:57:50;;;;;;;7.97;1.33;;;19.20;93.10;;;;;;5019395;28;20037;-74
2022/06/27 11:00:42;;;;;;;7.38;1.10;;;19.00;94.60;;;;;;5019445;28;20034;-71
2022/06/27 11:03:09;;;;;;;8.93;1.60;;;18.90;94.40;;;;;;5043404;28;20361;-74
2022/06/27 11:06:00;;;;;;;7.88;1.40;;;18.90;94.40;;;;;;5008431;28;20083;-71
2022/06/27 11:08:27;;;;;;;6.60;1.10;;;19.20;94.10;;;;;;5014243;28;20056;-74
2022/06/27 11:10:53;;;;;;;7.10;1.17;;;19.60;94.30;;;;;;5045155;28;20032;-78
2022/06/27 11:13:38;;;;;;;9.02;1.20;;;19.90;94.70;;;;;;5016983;28;20095;-73
2022/06/27 11:16:05;;;;;;;8.60;1.30;;;19.90;93.20;;;;;;5023110;28;20042;-71
2022/06/27 11:18:41;;;;;;;10.35;1.45;;;20.60;93.80;;;;;;5024588;28;20096;-74
2022/06/27 11:21:08;;;;;;;7.28;1.58;;;21.60;91.30;;;;;;5017131;28;20101;-76
2022/06/27 11:23:51;;;;;;;7.00;1.25;;;22.10;90.00;;;;;;5022584;28;20053;-75
2022/06/27 11:26:18;;;;;;;7.80;1.38;;;21.60;85.90;;;;;;5029123;28;20438;-76
2022/06/27 11:34:12;;;;;;;7.57;1.67;;;19.90;93.60;;;;;;5040143;28;20040;-74
2022/06/27 11:36:39;;;;;;;7.30;1.20;;;19.90;95.10;;;;;;5031698;28;20567;-74
2022/06/27 11:39:05;;;;;;;6.43;1.27;;;19.50;95.60;;;;;;5028360;28;20057;-73
2022/06/27 11:41:35;;;;;;;10.30;1.70;;;19.20;96.20;;;;;;5012008;28;20033;-72
2022/06/27 11:44:04;;;;;;;9.45;1.50;;;18.70;97.80;;;;;;5045146;28;20050;-74
2022/06/27 11:46:34;;;;;;;6.90;1.20;;;18.40;99.20;;;;;;5017488;28;20837;-72
2022/06/27 11:49:06;;;;;;;6.05;0.73;;;18.70;99.90;;;;;;5027125;28;20112;-73
2022/06/27 11:51:43;;;;;;;4.55;0.98;;;19.10;98.80;;;;;;5025124;28;20992;-75
2022/06/27 11:54:17;;;;;;;6.35;1.10;;;19.50;98.00;;;;;;5018325;28;20030;-73
2022/06/27 11:56:45;;;;;;;4.95;0.77;;;20.00;97.80;;;;;;5009680;28;20061;-75
2022/06/27 11:59:13;;;;;;;4.22;0.70;;;20.30;94.30;;;;;;5026730;28;20044;-74
2022/06/27 12:01:59;;;;;;;3.78;0.70;;;19.70;95.10;;;;;;5027606;28;20045;-74
2022/06/27 12:04:27;;;;;;;2.25;0.40;;;19.20;94.20;;;;;;5014679;28;20041;-73
2022/06/27 12:07:15;;;;;;;2.47;0.50;;;19.10;94.40;;;;;;5027718;28;20052;-75
2022/06/27 12:09:49;;;;;;;3.67;0.50;;;19.10;94.30;;;;;;5028828;28;20069;-74
2022/06/27 12:12:25;;;;;;;4.28;0.63;;;19.10;95.00;;;;;;5028960;28;20040;-75
2022/06/27 12:14:53;;;;;;;2.78;0.57;;;19.00;95.60;;;;;;5029033;28;20534;-73
2022/06/27 12:17:20;;;;;;;4.65;0.82;;;18.90;94.40;;;;;;5024799;28;20488;-75
2022/06/27 12:19:46;;;;;;;3.80;0.57;;;18.80;94.00;;;;;;5016869;28;20037;-75
2022/06/27 12:22:18;;;;;;;4.20;0.70;;;18.70;94.40;;;;;;5019160;28;20510;-75
2022/06/27 12:24:45;;;;;;;7.18;0.88;;;18.80;94.70;;;;;;5009623;28;20057;-79
2022/06/27 12:27:10;;;;;;;8.75;0.90;;;19.00;95.10;;;;;;5017045;28;20045;-73
2022/06/27 12:29:36;;;;;;;3.92;0.70;;;18.90;96.20;;;;;;5055948;28;20029;-76
2022/06/27 12:32:02;;;;;;;3.50;0.80;;;18.90;95.90;;;;;;5044193;28;20030;-73
2022/06/27 12:34:28;;;;;;;6.68;0.90;;;18.80;96.20;;;;;;5052057;28;20057;-78
2022/06/27 12:36:55;;;;;;;6.75;1.00;;;18.80;97.00;;;;;;5029196;28;20033;-73
2022/06/27 12:39:20;;;;;;;4.60;0.80;;;18.60;98.10;;;;;;5010107;28;20030;-72
2022/06/27 12:41:46;;;;;;;5.18;1.00;;;18.60;98.40;;;;;;5009757;28;20158;-73
2022/06/27 12:44:12;;;;;;;7.85;1.13;;;18.40;98.20;;;;;;5018962;28;20045;-75
2022/06/27 12:46:38;;;;;;;6.22;1.13;;;18.20;98.40;;;;;;5027980;28;20029;-73
2022/06/27 12:49:03;;;;;;;8.27;0.85;;;18.20;99.90;;;;;;5028586;28;20044;-73
2022/06/27 12:51:29;;;;;;;9.27;1.17;;;18.20;99.50;;;;;;5028968;28;20147;-74
2022/06/27 12:53:56;;;;;;;7.45;1.00;;;18.20;99.90;;;;;;5028714;28;20030;-72
2022/06/27 12:56:22;;;;;;;8.27;1.40;;;18.20;99.90;;;;;;5019142;28;20401;-73
2022/06/27 12:58:48;;;;;;;7.88;1.00;;;18.10;99.90;;;;;;5016269;28;20099;-76
2022/06/27 13:01:15;;;;;;;5.05;1.02;;;17.90;99.90;;;;;;5015369;28;20030;-75